Deinze, Belgium
Current Conditions -  °F | °C
As of 5:25 AM on Saturday 25 Oct 2014 (Local Time) from EHFS Reporting Station
Overcast Overcast  
Wind Chill: 55°   Ceiling: 700
Heat Index: 55°   Visibility: 4mi
Dew Point: 55°   Wind: 12mph
Humidity: 100%   Direction: 220°SW
Pressure: 29.97"   Gusts: NA
Location:  50.98°N, 3.53°E
Report Text: EHFS 250325Z AUTO 22010KT 190V250 6000 FEW004/// BKN007///OVC009/// 13/13 Q1015
Loading
Personal Weather Stations






























Interactive Weather Map
Tropical Storm Tracking
New forecast layout! Learn more

10-Day Weather Forecast

Advertisements
Track Severe Weather on mobile